Airport View

Enter AWOS ICAO identifier for current METAR.

ex. KFNL

KLBB 202353Z 11012KT 10SM FEW060 SCT120 SCT250 24/19 A2993 RMK AO2 LTG DSNT S SLP090 CB DSNT S-W MOV NE 60190 T02390194 10272 20189 55014

21 Sep 2019 00:25

Frequency: 125.3

Phone: 806-766-6432

Other Area AWOS: KPVW - K2F5 - KGNC - KSNK

TAF KLBB 202342Z 2100/2124 13010KT P6SM FEW060 SCT150 SCT250 FM210200 15010KT P6SM VCTS SCT015 SCT040CB BKN150 FM211300 18011KT P6SM -SHRA BKN015 OVC100